sensor_id;sensor_type;location;lat;lon;timestamp;pressure;altitude;pressure_sealevel;temperature;humidity
72465;BME280;60471;52.150;4.508;2023-02-15T00:01:59;102667.97;;;7.20;77.63
72465;BME280;60471;52.150;4.508;2023-02-15T00:04:26;102666.22;;;7.13;77.60
72465;BME280;60471;52.150;4.508;2023-02-15T00:07:13;102649.56;;;7.21;77.75
72465;BME280;60471;52.150;4.508;2023-02-15T00:09:41;102652.19;;;7.23;77.25
72465;BME280;60471;52.150;4.508;2023-02-15T00:12:08;102649.59;;;7.18;77.60
72465;BME280;60471;52.150;4.508;2023-02-15T00:14:35;102650.47;;;7.19;77.70
72465;BME280;60471;52.150;4.508;2023-02-15T00:17:04;102652.19;;;7.28;77.08
72465;BME280;60471;52.150;4.508;2023-02-15T00:19:31;102648.53;;;7.47;75.84
72465;BME280;60471;52.150;4.508;2023-02-15T00:21:57;102639.78;;;7.46;76.03
72465;BME280;60471;52.150;4.508;2023-02-15T00:24:23;102637.28;;;7.23;76.12
72465;BME280;60471;52.150;4.508;2023-02-15T00:26:49;102641.69;;;7.21;76.67
72465;BME280;60471;52.150;4.508;2023-02-15T00:29:18;102640.00;;;7.08;76.77
72465;BME280;60471;52.150;4.508;2023-02-15T00:31:45;102636.50;;;7.05;76.78
72465;BME280;60471;52.150;4.508;2023-02-15T00:34:13;102632.19;;;6.96;77.07
72465;BME280;60471;52.150;4.508;2023-02-15T00:36:42;102632.97;;;7.18;76.37
72465;BME280;60471;52.150;4.508;2023-02-15T00:39:09;102636.50;;;7.08;76.49
72465;BME280;60471;52.150;4.508;2023-02-15T00:41:36;102630.44;;;6.96;76.67
72465;BME280;60471;52.150;4.508;2023-02-15T00:44:03;102633.03;;;7.07;76.77
72465;BME280;60471;52.150;4.508;2023-02-15T00:46:30;102631.22;;;7.12;76.38
72465;BME280;60471;52.150;4.508;2023-02-15T00:48:57;102627.78;;;7.06;76.95
72465;BME280;60471;52.150;4.508;2023-02-15T00:51:24;102626.88;;;7.04;76.64
72465;BME280;60471;52.150;4.508;2023-02-15T00:53:51;102626.06;;;6.91;77.23
72465;BME280;60471;52.150;4.508;2023-02-15T00:56:17;102622.53;;;7.00;77.08
72465;BME280;60471;52.150;4.508;2023-02-15T00:58:44;102618.16;;;7.02;76.79
72465;BME280;60471;52.150;4.508;2023-02-15T01:01:16;102616.47;;;6.90;76.47
72465;BME280;60471;52.150;4.508;2023-02-15T01:03:44;102615.59;;;6.82;77.29
72465;BME280;60471;52.150;4.508;2023-02-15T01:06:13;102606.84;;;6.89;77.03
72465;BME280;60471;52.150;4.508;2023-02-15T01:08:41;102615.56;;;6.97;76.96
72465;BME280;60471;52.150;4.508;2023-02-15T01:11:13;102608.50;;;7.04;76.31
72465;BME280;60471;52.150;4.508;2023-02-15T01:13:49;102606.00;;;6.85;76.38
72465;BME280;60471;52.150;4.508;2023-02-15T01:16:17;102608.63;;;6.78;76.67
72465;BME280;60471;52.150;4.508;2023-02-15T01:18:44;102614.75;;;6.80;76.78
72465;BME280;60471;52.150;4.508;2023-02-15T01:21:16;102613.91;;;6.72;76.55
72465;BME280;60471;52.150;4.508;2023-02-15T01:23:45;102596.41;;;6.75;76.35
72465;BME280;60471;52.150;4.508;2023-02-15T01:26:12;102596.41;;;6.72;76.54
72465;BME280;60471;52.150;4.508;2023-02-15T01:28:39;102595.59;;;6.64;77.03
72465;BME280;60471;52.150;4.508;2023-02-15T01:31:11;102596.47;;;6.63;76.79
72465;BME280;60471;52.150;4.508;2023-02-15T01:33:39;102606.09;;;6.49;77.24
72465;BME280;60471;52.150;4.508;2023-02-15T01:36:06;102601.72;;;6.49;77.31
72465;BME280;60471;52.150;4.508;2023-02-15T01:38:34;102590.28;;;6.75;76.37
72465;BME280;60471;52.150;4.508;2023-02-15T01:41:01;102589.41;;;6.71;76.08
72465;BME280;60471;52.150;4.508;2023-02-15T01:43:48;102585.09;;;6.59;75.54
72465;BME280;60471;52.150;4.508;2023-02-15T01:46:19;102594.75;;;6.47;76.08
72465;BME280;60471;52.150;4.508;2023-02-15T01:48:55;102584.28;;;6.42;76.42
72465;BME280;60471;52.150;4.508;2023-02-15T01:51:27;102589.56;;;6.30;76.19
72465;BME280;60471;52.150;4.508;2023-02-15T01:54:02;102587.81;;;6.24;76.95
72465;BME280;60471;52.150;4.508;2023-02-15T01:56:41;102584.28;;;6.36;76.89
72465;BME280;60471;52.150;4.508;2023-02-15T01:59:12;102588.63;;;6.40;76.36
72465;BME280;60471;52.150;4.508;2023-02-15T02:01:43;102588.69;;;6.31;76.12
72465;BME280;60471;52.150;4.508;2023-02-15T02:04:18;102587.75;;;6.39;76.25
72465;BME280;60471;52.150;4.508;2023-02-15T02:06:51;102580.81;;;6.32;76.38
72465;BME280;60471;52.150;4.508;2023-02-15T02:09:19;102578.19;;;6.28;76.23
72465;BME280;60471;52.150;4.508;2023-02-15T02:11:46;102571.19;;;6.27;76.63
72465;BME280;60471;52.150;4.508;2023-02-15T02:14:15;102579.03;;;6.39;76.85
72465;BME280;60471;52.150;4.508;2023-02-15T02:34:36;102538.91;;;6.06;78.46
72465;BME280;60471;52.150;4.508;2023-02-15T02:37:03;102543.31;;;5.91;78.44
72465;BME280;60471;52.150;4.508;2023-02-15T02:42:59;102537.13;;;6.18;77.93
72465;BME280;60471;52.150;4.508;2023-02-15T02:45:58;102536.28;;;6.16;77.29
72465;BME280;60471;52.150;4.508;2023-02-15T02:48:33;102523.19;;;6.09;77.52
72465;BME280;60471;52.150;4.508;2023-02-15T02:51:00;102531.09;;;5.99;77.49
72465;BME280;60471;52.150;4.508;2023-02-15T02:53:28;102523.22;;;6.00;77.69
72465;BME280;60471;52.150;4.508;2023-02-15T02:56:06;102524.06;;;6.05;78.07
72465;BME280;60471;52.150;4.508;2023-02-15T02:58:49;102516.22;;;6.01;77.56
72465;BME280;60471;52.150;4.508;2023-02-15T03:01:48;102513.63;;;5.99;77.31
72465;BME280;60471;52.150;4.508;2023-02-15T03:04:25;102511.88;;;6.00;78.00
72465;BME280;60471;52.150;4.508;2023-02-15T03:07:01;102513.53;;;6.18;77.74
72465;BME280;60471;52.150;4.508;2023-02-15T03:09:35;102512.69;;;6.13;78.05
72465;BME280;60471;52.150;4.508;2023-02-15T03:12:14;102516.19;;;6.07;77.76
72465;BME280;60471;52.150;4.508;2023-02-15T03:14:49;102514.47;;;5.94;78.08
72465;BME280;60471;52.150;4.508;2023-02-15T03:17:21;102509.25;;;5.86;77.97
72465;BME280;60471;52.150;4.508;2023-02-15T03:19:51;102507.47;;;5.82;77.85
72465;BME280;60471;52.150;4.508;2023-02-15T03:22:39;102503.09;;;5.86;78.32
72465;BME280;60471;52.150;4.508;2023-02-15T03:27:56;102496.16;;;5.91;78.68
72465;BME280;60471;52.150;4.508;2023-02-15T03:30:29;102495.25;;;5.82;78.98
72465;BME280;60471;52.150;4.508;2023-02-15T03:32:58;102493.53;;;5.74;79.15
72465;BME280;60471;52.150;4.508;2023-02-15T03:35:33;102491.75;;;5.85;79.16
72465;BME280;60471;52.150;4.508;2023-02-15T03:38:07;102488.28;;;5.81;79.12
72465;BME280;60471;52.150;4.508;2023-02-15T03:40:40;102486.53;;;5.80;79.15
72465;BME280;60471;52.150;4.508;2023-02-15T03:43:59;102480.47;;;5.65;79.92
72465;BME280;60471;52.150;4.508;2023-02-15T03:46:52;102474.31;;;5.64;80.20
72465;BME280;60471;52.150;4.508;2023-02-15T03:49:28;102472.59;;;5.75;79.69
72465;BME280;60471;52.150;4.508;2023-02-15T03:52:04;102475.19;;;5.74;79.91
72465;BME280;60471;52.150;4.508;2023-02-15T03:54:35;102474.34;;;5.66;79.60
72465;BME280;60471;52.150;4.508;2023-02-15T04:06:00;102469.09;;;5.63;79.91
72465;BME280;60471;52.150;4.508;2023-02-15T04:08:28;102461.25;;;5.57;79.89
72465;BME280;60471;52.150;4.508;2023-02-15T04:11:13;102458.66;;;5.46;80.18
72465;BME280;60471;52.150;4.508;2023-02-15T04:13:39;102447.28;;;5.53;80.11
72465;BME280;60471;52.150;4.508;2023-02-15T04:16:06;102446.41;;;5.66;79.59
72465;BME280;60471;52.150;4.508;2023-02-15T04:18:37;102449.91;;;5.67;79.53
72465;BME280;60471;52.150;4.508;2023-02-15T04:21:26;102452.53;;;5.65;79.84
72465;BME280;60471;52.150;4.508;2023-02-15T04:24:12;102443.78;;;5.77;79.28
72465;BME280;60471;52.150;4.508;2023-02-15T04:26:58;102440.28;;;5.78;78.96
72465;BME280;60471;52.150;4.508;2023-02-15T04:29:26;102439.44;;;5.67;78.93
72465;BME280;60471;52.150;4.508;2023-02-15T04:31:54;102442.94;;;5.58;79.78
72465;BME280;60471;52.150;4.508;2023-02-15T04:34:22;102450.78;;;5.58;79.43
72465;BME280;60471;52.150;4.508;2023-02-15T04:36:48;102442.06;;;5.39;80.12
72465;BME280;60471;52.150;4.508;2023-02-15T04:39:17;102441.19;;;5.42;80.28
72465;BME280;60471;52.150;4.508;2023-02-15T04:41:44;102442.94;;;5.55;79.45
72465;BME280;60471;52.150;4.508;2023-02-15T04:44:11;102449.06;;;5.46;79.59
72465;BME280;60471;52.150;4.508;2023-02-15T04:46:37;102442.94;;;5.37;79.97
72465;BME280;60471;52.150;4.508;2023-02-15T04:49:03;102442.94;;;5.40;80.11
72465;BME280;60471;52.150;4.508;2023-02-15T04:51:30;102431.63;;;5.35;80.32
72465;BME280;60471;52.150;4.508;2023-02-15T04:53:56;102427.22;;;5.31;80.29
72465;BME280;60471;52.150;4.508;2023-02-15T04:56:22;102433.38;;;5.22;80.63
72465;BME280;60471;52.150;4.508;2023-02-15T04:58:48;102426.38;;;5.29;80.59
72465;BME280;60471;52.150;4.508;2023-02-15T05:01:15;102430.75;;;5.25;80.42
72465;BME280;60471;52.150;4.508;2023-02-15T05:03:41;102434.25;;;5.12;80.69
72465;BME280;60471;52.150;4.508;2023-02-15T05:06:07;102429.88;;;5.17;81.19
72465;BME280;60471;52.150;4.508;2023-02-15T05:08:34;102426.38;;;5.04;80.99
72465;BME280;60471;52.150;4.508;2023-02-15T05:11:00;102424.63;;;5.06;81.07
72465;BME280;60471;52.150;4.508;2023-02-15T05:13:26;102424.63;;;5.05;80.94
72465;BME280;60471;52.150;4.508;2023-02-15T05:15:52;102421.13;;;4.92;81.60
72465;BME280;60471;52.150;4.508;2023-02-15T05:18:20;102425.50;;;4.78;82.28
72465;BME280;60471;52.150;4.508;2023-02-15T05:20:48;102427.22;;;4.80;82.76
72465;BME280;60471;52.150;4.508;2023-02-15T05:23:15;102424.63;;;4.80;82.46
72465;BME280;60471;52.150;4.508;2023-02-15T05:25:46;102423.72;;;4.77;82.52
72465;BME280;60471;52.150;4.508;2023-02-15T05:28:33;102422.84;;;4.75;82.28
72465;BME280;60471;52.150;4.508;2023-02-15T05:33:31;102428.06;;;4.61;83.17
72465;BME280;60471;52.150;4.508;2023-02-15T05:35:58;102431.56;;;4.69;82.85
72465;BME280;60471;52.150;4.508;2023-02-15T05:38:24;102431.56;;;4.69;82.50
72465;BME280;60471;52.150;4.508;2023-02-15T05:40:51;102421.97;;;4.62;82.36
72465;BME280;60471;52.150;4.508;2023-02-15T05:43:18;102411.50;;;4.63;82.37
72465;BME280;60471;52.150;4.508;2023-02-15T05:45:46;102408.91;;;4.74;82.46
72465;BME280;60471;52.150;4.508;2023-02-15T05:48:15;102404.56;;;4.72;82.50
72465;BME280;60471;52.150;4.508;2023-02-15T05:50:41;102402.78;;;4.77;82.48
72465;BME280;60471;52.150;4.508;2023-02-15T05:53:08;102400.19;;;4.84;81.91
72465;BME280;60471;52.150;4.508;2023-02-15T05:55:36;102397.59;;;4.86;82.03
72465;BME280;60471;52.150;4.508;2023-02-15T05:58:03;102388.88;;;4.93;81.90
72465;BME280;60471;52.150;4.508;2023-02-15T06:00:30;102400.22;;;4.83;81.93
72465;BME280;60471;52.150;4.508;2023-02-15T06:02:56;102399.31;;;4.76;82.34
72465;BME280;60471;52.150;4.508;2023-02-15T06:05:22;102399.31;;;4.76;82.26
72465;BME280;60471;52.150;4.508;2023-02-15T06:07:48;102397.56;;;4.77;82.45
72465;BME280;60471;52.150;4.508;2023-02-15T06:10:14;102399.34;;;4.78;82.53
72465;BME280;60471;52.150;4.508;2023-02-15T06:12:41;102399.34;;;4.79;82.42
72465;BME280;60471;52.150;4.508;2023-02-15T06:15:07;102399.34;;;4.82;82.21
72465;BME280;60471;52.150;4.508;2023-02-15T06:17:34;102394.09;;;4.96;81.95
72465;BME280;60471;52.150;4.508;2023-02-15T06:20:00;102394.13;;;4.88;81.78
72465;BME280;60471;52.150;4.508;2023-02-15T06:22:26;102403.72;;;4.92;81.84
72465;BME280;60471;52.150;4.508;2023-02-15T06:24:53;102408.94;;;4.92;81.57
72465;BME280;60471;52.150;4.508;2023-02-15T06:27:19;102408.91;;;4.97;81.83
72465;BME280;60471;52.150;4.508;2023-02-15T06:29:45;102399.34;;;4.90;82.09
72465;BME280;60471;52.150;4.508;2023-02-15T06:32:11;102401.97;;;4.90;81.78
72465;BME280;60471;52.150;4.508;2023-02-15T06:34:37;102407.19;;;4.93;81.92
72465;BME280;60471;52.150;4.508;2023-02-15T06:37:03;102405.44;;;4.86;81.81
72465;BME280;60471;52.150;4.508;2023-02-15T06:39:30;102409.78;;;4.67;82.71
72465;BME280;60471;52.150;4.508;2023-02-15T06:41:57;102401.06;;;4.76;82.44
72465;BME280;60471;52.150;4.508;2023-02-15T06:44:23;102396.69;;;4.61;82.97
72465;BME280;60471;52.150;4.508;2023-02-15T06:46:50;102398.44;;;4.66;82.44
72465;BME280;60471;52.150;4.508;2023-02-15T06:49:16;102397.53;;;4.48;82.88
72465;BME280;60471;52.150;4.508;2023-02-15T06:51:42;102394.94;;;4.51;82.70
72465;BME280;60471;52.150;4.508;2023-02-15T06:54:08;102399.28;;;4.46;82.49
72465;BME280;60471;52.150;4.508;2023-02-15T06:56:35;102388.81;;;4.36;83.30
72465;BME280;60471;52.150;4.508;2023-02-15T06:59:01;102396.59;;;4.32;83.37
72465;BME280;60471;52.150;4.508;2023-02-15T07:01:27;102393.16;;;4.34;83.15
72465;BME280;60471;52.150;4.508;2023-02-15T07:03:53;102393.16;;;4.39;83.69
72465;BME280;60471;52.150;4.508;2023-02-15T07:06:20;102386.19;;;4.44;83.43
72465;BME280;60471;52.150;4.508;2023-02-15T07:08:46;102381.84;;;4.45;82.97
72465;BME280;60471;52.150;4.508;2023-02-15T07:11:12;102377.47;;;4.39;83.07
72465;BME280;60471;52.150;4.508;2023-02-15T07:13:57;102387.94;;;4.36;83.40
72465;BME280;60471;52.150;4.508;2023-02-15T07:16:23;102380.97;;;4.43;83.27
72465;BME280;60471;52.150;4.508;2023-02-15T07:18:49;102380.97;;;4.55;82.97
72465;BME280;60471;52.150;4.508;2023-02-15T07:21:15;102380.13;;;4.51;82.86
72465;BME280;60471;52.150;4.508;2023-02-15T07:23:42;102385.38;;;4.59;82.64
72465;BME280;60471;52.150;4.508;2023-02-15T07:26:09;102378.38;;;4.62;82.06
72465;BME280;60471;52.150;4.508;2023-02-15T07:28:35;102369.66;;;4.63;82.24
72465;BME280;60471;52.150;4.508;2023-02-15T07:31:03;102370.56;;;4.70;81.78
72465;BME280;60471;52.150;4.508;2023-02-15T07:33:32;102371.41;;;4.64;82.07
72465;BME280;60471;52.150;4.508;2023-02-15T07:36:01;102369.69;;;4.74;81.70
72465;BME280;60471;52.150;4.508;2023-02-15T07:40:58;102352.25;;;4.73;81.14
72465;BME280;60471;52.150;4.508;2023-02-15T07:43:32;102357.50;;;4.78;81.08
72465;BME280;60471;52.150;4.508;2023-02-15T07:46:01;102361.84;;;4.85;81.01
72465;BME280;60471;52.150;4.508;2023-02-15T07:48:33;102356.59;;;4.88;80.73
72465;BME280;60471;52.150;4.508;2023-02-15T07:51:01;102367.06;;;4.77;80.79
72465;BME280;60471;52.150;4.508;2023-02-15T07:53:30;102362.72;;;4.85;80.50
72465;BME280;60471;52.150;4.508;2023-02-15T07:56:00;102357.50;;;4.93;79.88
72465;BME280;60471;52.150;4.508;2023-02-15T07:58:28;102356.63;;;4.70;80.01
72465;BME280;60471;52.150;4.508;2023-02-15T08:01:13;102359.22;;;4.59;80.42
72465;BME280;60471;52.150;4.508;2023-02-15T08:03:40;102360.91;;;4.45;80.85
72465;BME280;60471;52.150;4.508;2023-02-15T08:06:07;102356.56;;;4.27;81.03
72465;BME280;60471;52.150;4.508;2023-02-15T08:08:34;102360.09;;;4.47;80.08
72465;BME280;60471;52.150;4.508;2023-02-15T08:11:05;102353.09;;;4.35;80.22
72465;BME280;60471;52.150;4.508;2023-02-15T08:21:56;102359.19;;;4.42;80.02
72465;BME280;60471;52.150;4.508;2023-02-15T08:24:30;102357.47;;;4.49;79.80
72465;BME280;60471;52.150;4.508;2023-02-15T08:26:59;102358.34;;;4.51;79.78
72465;BME280;60471;52.150;4.508;2023-02-15T08:29:30;102363.50;;;4.34;79.56
72465;BME280;60471;52.150;4.508;2023-02-15T08:31:59;102351.34;;;4.51;79.57
72465;BME280;60471;52.150;4.508;2023-02-15T08:34:32;102349.63;;;4.61;79.50
72465;BME280;60471;52.150;4.508;2023-02-15T08:37:00;102345.31;;;4.78;78.71
72465;BME280;60471;52.150;4.508;2023-02-15T08:39:26;102342.66;;;4.86;77.88
72465;BME280;60471;52.150;4.508;2023-02-15T08:41:53;102339.19;;;4.90;77.64
72465;BME280;60471;52.150;4.508;2023-02-15T08:44:19;102343.53;;;4.97;77.79
72465;BME280;60471;52.150;4.508;2023-02-15T08:46:48;102348.78;;;5.11;76.87
72465;BME280;60471;52.150;4.508;2023-02-15T08:49:18;102342.63;;;5.18;76.76
72465;BME280;60471;52.150;4.508;2023-02-15T08:51:47;102346.09;;;5.29;76.37
72465;BME280;60471;52.150;4.508;2023-02-15T08:54:16;102345.22;;;5.41;76.10
72465;BME280;60471;52.150;4.508;2023-02-15T08:56:45;102338.25;;;5.35;76.02
72465;BME280;60471;52.150;4.508;2023-02-15T08:59:14;102339.97;;;5.48;75.78
72465;BME280;60471;52.150;4.508;2023-02-15T09:01:46;102347.81;;;5.56;74.91
72465;BME280;60471;52.150;4.508;2023-02-15T09:04:13;102359.97;;;5.77;74.72
72465;BME280;60471;52.150;4.508;2023-02-15T09:06:42;102354.78;;;5.59;75.33
72465;BME280;60471;52.150;4.508;2023-02-15T09:09:10;102353.81;;;5.90;74.82
72465;BME280;60471;52.150;4.508;2023-02-15T09:11:39;102350.25;;;6.08;74.12
72465;BME280;60471;52.150;4.508;2023-02-15T09:14:13;102345.84;;;6.13;73.17
72465;BME280;60471;52.150;4.508;2023-02-15T09:16:43;102341.50;;;6.12;73.41
72465;BME280;60471;52.150;4.508;2023-02-15T09:19:12;102339.63;;;6.28;73.17
72465;BME280;60471;52.150;4.508;2023-02-15T09:21:38;102327.19;;;6.59;72.30
72465;BME280;60471;52.150;4.508;2023-02-15T09:24:08;102325.34;;;6.75;71.67
72465;BME280;60471;52.150;4.508;2023-02-15T09:26:38;102333.19;;;6.76;71.74
72465;BME280;60471;52.150;4.508;2023-02-15T09:29:06;102345.53;;;6.65;72.03
72465;BME280;60471;52.150;4.508;2023-02-15T09:31:38;102331.13;;;7.10;71.51
72465;BME280;60471;52.150;4.508;2023-02-15T09:34:07;102332.06;;;7.05;71.13
72465;BME280;60471;52.150;4.508;2023-02-15T09:36:38;102330.97;;;7.29;70.65
72465;BME280;60471;52.150;4.508;2023-02-15T09:39:23;102331.47;;;7.63;69.94
72465;BME280;60471;52.150;4.508;2023-02-15T09:48:11;102320.94;;;9.35;64.28
72465;BME280;60471;52.150;4.508;2023-02-15T09:56:48;102320.69;;;9.91;62.58
72465;BME280;60471;52.150;4.508;2023-02-15T10:05:15;102324.72;;;10.47;61.00
72465;BME280;60471;52.150;4.508;2023-02-15T10:08:24;102313.63;;;9.93;62.65
72465;BME280;60471;52.150;4.508;2023-02-15T10:11:19;102326.28;;;9.75;63.38
72465;BME280;60471;52.150;4.508;2023-02-15T10:23:26;102320.53;;;10.76;61.73
72465;BME280;60471;52.150;4.508;2023-02-15T10:26:03;102319.63;;;10.77;61.83
72465;BME280;60471;52.150;4.508;2023-02-15T10:29:03;102310.41;;;11.25;60.29
72465;BME280;60471;52.150;4.508;2023-02-15T10:31:49;102305.03;;;11.59;59.91
72465;BME280;60471;52.150;4.508;2023-02-15T10:34:21;102311.00;;;12.27;57.73
72465;BME280;60471;52.150;4.508;2023-02-15T10:40:10;102304.38;;;11.53;60.47
72465;BME280;60471;52.150;4.508;2023-02-15T10:54:58;102270.91;;;12.11;59.04
72465;BME280;60471;52.150;4.508;2023-02-15T10:58:15;102260.06;;;12.98;56.69
72465;BME280;60471;52.150;4.508;2023-02-15T11:03:40;102247.41;;;14.23;52.83
72465;BME280;60471;52.150;4.508;2023-02-15T11:06:25;102257.13;;;14.66;52.11
72465;BME280;60471;52.150;4.508;2023-02-15T11:09:09;102243.75;;;15.29;49.49
72465;BME280;60471;52.150;4.508;2023-02-15T11:11:40;102257.97;;;14.46;51.29
72465;BME280;60471;52.150;4.508;2023-02-15T11:17:45;102255.34;;;14.01;53.34
72465;BME280;60471;52.150;4.508;2023-02-15T11:20:25;102256.38;;;14.63;52.13
72465;BME280;60471;52.150;4.508;2023-02-15T11:23:00;102251.47;;;15.54;49.93
72465;BME280;60471;52.150;4.508;2023-02-15T11:25:32;102258.00;;;14.67;50.32
72465;BME280;60471;52.150;4.508;2023-02-15T11:28:03;102255.81;;;14.76;49.34
72465;BME280;60471;52.150;4.508;2023-02-15T11:30:44;102251.22;;;15.40;47.77
72465;BME280;60471;52.150;4.508;2023-02-15T11:33:30;102255.66;;;16.69;43.76
72465;BME280;60471;52.150;4.508;2023-02-15T11:36:22;102255.28;;;15.09;46.35
72465;BME280;60471;52.150;4.508;2023-02-15T11:38:57;102260.75;;;14.42;48.22
72465;BME280;60471;52.150;4.508;2023-02-15T11:41:32;102252.97;;;15.01;47.93
72465;BME280;60471;52.150;4.508;2023-02-15T11:44:59;102255.34;;;14.67;47.79
72465;BME280;60471;52.150;4.508;2023-02-15T11:47:10;102232.50;;;15.61;46.10
72465;BME280;60471;52.150;4.508;2023-02-15T11:49:38;102212.81;;;16.38;43.93
72465;BME280;60471;52.150;4.508;2023-02-15T11:52:07;102219.50;;;16.29;44.67
72465;BME280;60471;52.150;4.508;2023-02-15T11:54:41;102217.19;;;16.75;43.53
72465;BME280;60471;52.150;4.508;2023-02-15T11:57:15;102221.88;;;16.16;44.36
72465;BME280;60471;52.150;4.508;2023-02-15T11:59:53;102236.97;;;16.35;43.48
72465;BME280;60471;52.150;4.508;2023-02-15T12:02:31;102228.63;;;16.94;42.42
72465;BME280;60471;52.150;4.508;2023-02-15T12:05:11;102235.78;;;17.76;41.00
72465;BME280;60471;52.150;4.508;2023-02-15T12:08:15;102232.81;;;16.83;42.34
72465;BME280;60471;52.150;4.508;2023-02-15T12:11:10;102218.53;;;17.65;41.16
72465;BME280;60471;52.150;4.508;2023-02-15T12:13:58;102216.84;;;19.02;38.31
72465;BME280;60471;52.150;4.508;2023-02-15T12:16:27;102215.13;;;18.41;38.99
72465;BME280;60471;52.150;4.508;2023-02-15T12:19:00;102204.22;;;19.32;38.11
72465;BME280;60471;52.150;4.508;2023-02-15T12:21:34;102209.75;;;18.57;39.06
72465;BME280;60471;52.150;4.508;2023-02-15T12:24:18;102202.25;;;21.47;34.29
72465;BME280;60471;52.150;4.508;2023-02-15T12:29:35;102204.28;;;20.54;35.48
72465;BME280;60471;52.150;4.508;2023-02-15T12:32:11;102211.53;;;18.86;38.15
72465;BME280;60471;52.150;4.508;2023-02-15T12:34:45;102205.97;;;16.68;43.24
72465;BME280;60471;52.150;4.508;2023-02-15T12:37:23;102201.88;;;15.72;45.63
72465;BME280;60471;52.150;4.508;2023-02-15T12:39:58;102203.66;;;15.52;46.43
72465;BME280;60471;52.150;4.508;2023-02-15T12:42:27;102201.97;;;15.12;47.60
72465;BME280;60471;52.150;4.508;2023-02-15T12:45:28;102195.59;;;15.35;47.13
72465;BME280;60471;52.150;4.508;2023-02-15T12:50:36;102190.13;;;15.38;47.21
72465;BME280;60471;52.150;4.508;2023-02-15T12:53:20;102187.44;;;17.00;42.30
72465;BME280;60471;52.150;4.508;2023-02-15T12:55:57;102191.22;;;16.61;42.53
72465;BME280;60471;52.150;4.508;2023-02-15T12:58:29;102193.59;;;16.50;43.27
72465;BME280;60471;52.150;4.508;2023-02-15T13:03:58;102188.78;;;16.91;42.08
72465;BME280;60471;52.150;4.508;2023-02-15T13:06:29;102179.50;;;16.98;42.56
72465;BME280;60471;52.150;4.508;2023-02-15T13:09:06;102184.97;;;15.73;44.69
72465;BME280;60471;52.150;4.508;2023-02-15T13:11:42;102178.03;;;15.12;45.47
72465;BME280;60471;52.150;4.508;2023-02-15T13:14:26;102174.13;;;15.77;44.27
72465;BME280;60471;52.150;4.508;2023-02-15T13:17:00;102176.91;;;15.55;45.40
72465;BME280;60471;52.150;4.508;2023-02-15T13:19:39;102171.53;;;16.64;43.65
72465;BME280;60471;52.150;4.508;2023-02-15T13:22:19;102176.34;;;14.91;46.93
72465;BME280;60471;52.150;4.508;2023-02-15T13:24:58;102174.78;;;15.05;46.96
72465;BME280;60471;52.150;4.508;2023-02-15T13:27:37;102179.28;;;15.24;46.41
72465;BME280;60471;52.150;4.508;2023-02-15T13:30:36;102169.31;;;14.49;48.27
72465;BME280;60471;52.150;4.508;2023-02-15T13:33:21;102153.63;;;14.84;47.98
72465;BME280;60471;52.150;4.508;2023-02-15T13:42:00;102166.91;;;16.67;42.91
72465;BME280;60471;52.150;4.508;2023-02-15T14:02:28;102125.97;;;17.50;41.70
72465;BME280;60471;52.150;4.508;2023-02-15T14:11:37;102125.44;;;20.44;35.22
72465;BME280;60471;52.150;4.508;2023-02-15T14:14:35;102124.09;;;19.58;37.05
72465;BME280;60471;52.150;4.508;2023-02-15T14:17:29;102125.78;;;18.89;38.30
72465;BME280;60471;52.150;4.508;2023-02-15T14:20:17;102125.28;;;18.82;38.63
72465;BME280;60471;52.150;4.508;2023-02-15T14:32:08;102137.63;;;17.00;42.58
72465;BME280;60471;52.150;4.508;2023-02-15T14:34:45;102136.63;;;17.19;42.19
72465;BME280;60471;52.150;4.508;2023-02-15T14:37:34;102136.00;;;17.14;41.93
72465;BME280;60471;52.150;4.508;2023-02-15T14:49:12;102120.44;;;15.86;45.15
72465;BME280;60471;52.150;4.508;2023-02-15T14:59:45;102128.06;;;14.81;47.73
72465;BME280;60471;52.150;4.508;2023-02-15T15:05:14;102137.22;;;14.13;49.35
72465;BME280;60471;52.150;4.508;2023-02-15T15:07:57;102134.00;;;14.05;50.17
72465;BME280;60471;52.150;4.508;2023-02-15T15:10:35;102132.78;;;13.48;51.59
72465;BME280;60471;52.150;4.508;2023-02-15T15:16:27;102125.88;;;12.97;53.26
72465;BME280;60471;52.150;4.508;2023-02-15T15:22:22;102111.59;;;12.53;54.60
72465;BME280;60471;52.150;4.508;2023-02-15T15:24:56;102113.13;;;12.60;54.49
72465;BME280;60471;52.150;4.508;2023-02-15T15:27:52;102123.53;;;12.39;55.29
72465;BME280;60471;52.150;4.508;2023-02-15T15:35:37;102120.50;;;11.99;56.94
72465;BME280;60471;52.150;4.508;2023-02-15T15:41:42;102122.78;;;11.83;58.21
72465;BME280;60471;52.150;4.508;2023-02-15T15:50:30;102116.34;;;11.64;59.08
72465;BME280;60471;52.150;4.508;2023-02-15T15:52:58;102111.75;;;11.69;59.08
72465;BME280;60471;52.150;4.508;2023-02-15T15:55:30;102108.88;;;11.76;58.82
72465;BME280;60471;52.150;4.508;2023-02-15T15:58:03;102113.03;;;11.85;58.55
72465;BME280;60471;52.150;4.508;2023-02-15T16:03:22;102098.66;;;11.66;59.13
72465;BME280;60471;52.150;4.508;2023-02-15T16:05:49;102102.56;;;11.54;59.43
72465;BME280;60471;52.150;4.508;2023-02-15T16:08:33;102107.63;;;11.32;59.96
72465;BME280;60471;52.150;4.508;2023-02-15T16:11:13;102096.09;;;11.35;60.29
72465;BME280;60471;52.150;4.508;2023-02-15T16:13:43;102095.56;;;11.23;60.96
72465;BME280;60471;52.150;4.508;2023-02-15T16:16:12;102090.97;;;11.30;60.77
72465;BME280;60471;52.150;4.508;2023-02-15T16:18:46;102077.19;;;11.20;60.90
72465;BME280;60471;52.150;4.508;2023-02-15T16:21:18;102089.75;;;11.12;61.56
72465;BME280;60471;52.150;4.508;2023-02-15T16:24:19;102087.03;;;11.14;61.65
72465;BME280;60471;52.150;4.508;2023-02-15T16:29:55;102075.66;;;11.12;61.74
72465;BME280;60471;52.150;4.508;2023-02-15T16:32:24;102084.06;;;10.96;61.81
72465;BME280;60471;52.150;4.508;2023-02-15T16:34:57;102086.00;;;10.90;62.24
72465;BME280;60471;52.150;4.508;2023-02-15T16:37:30;102099.13;;;10.93;62.37
72465;BME280;60471;52.150;4.508;2023-02-15T16:39:58;102104.19;;;11.00;62.06